Time;durP1;ratioP1;P1;durP2;ratioP2;P2;SDS_P1;SDS_P2;PMS_P1;PMS_P2;Temp;Humidity;BMP_temperature;BMP_pressure;BME280_temperature;BME280_humidity;BME280_pressure;Samples;Min_cycle;Max_cycle;Signal;HPM_P1;HPM_P2
2023/07/22 00:02:15;;;;;;;;;;;;;;;5.38;100.00;99561.44;5015600;28;19917;-87
2023/07/22 00:04:40;;;;;;;;;;;;;;;5.37;100.00;99565.78;5015767;28;19917;-86
2023/07/22 00:07:05;;;;;;;;;;;;;;;5.37;100.00;99564.94;5015212;28;19991;-84
2023/07/22 00:09:33;;;;;;;;;;;;;;;5.36;100.00;99565.84;5010891;28;19925;-84
2023/07/22 05:20:27;;;;;;;;;;;;;;;5.12;100.00;99549.78;5355918;23;20040;-85
2023/07/22 05:22:53;;;;;;;;;;;;;;;5.21;100.00;99548.69;4976591;28;20487;-82
2023/07/22 05:25:18;;;;;;;;;;;;;;;5.30;100.00;99553.72;4994259;28;19922;-83
2023/07/22 05:27:43;;;;;;;;;;;;;;;5.27;100.00;99554.66;4994625;28;20020;-83
2023/07/22 05:30:09;;;;;;;;;;;;;;;5.34;100.00;99552.72;4976625;28;20399;-82
2023/07/22 05:32:35;;;;;;;;;;;;;;;5.38;100.00;99558.81;4994483;28;19929;-82
2023/07/22 05:35:02;;;;;;;;;;;;;;;5.31;100.00;99555.44;4993125;28;19918;-82
2023/07/22 05:37:27;;;;;;;;;;;;;;;5.40;100.00;99555.22;4993974;28;19945;-82
2023/07/22 05:39:52;;;;;;;;;;;;;;;5.36;100.00;99555.31;4976165;28;20440;-81
2023/07/22 05:42:18;;;;;;;;;;;;;;;5.40;100.00;99551.72;4994123;28;19922;-81
2023/07/22 05:44:43;;;;;;;;;;;;;;;5.36;100.00;99550.06;4991038;28;19922;-81
2023/07/22 05:47:09;;;;;;;;;;;;;;;5.37;100.00;99550.03;4993882;28;20272;-82
2023/07/22 05:49:34;;;;;;;;;;;;;;;5.37;100.00;99551.81;4991709;28;19921;-82
2023/07/22 05:51:59;;;;;;;;;;;;;;;5.32;100.00;99551.06;4988788;28;19918;-81
2023/07/22 05:54:24;;;;;;;;;;;;;;;5.38;100.00;99550.91;4993963;28;19928;-81
2023/07/22 05:56:49;;;;;;;;;;;;;;;5.36;100.00;99557.94;4992620;28;19962;-82
2023/07/22 05:59:15;;;;;;;;;;;;;;;5.48;100.00;99560.28;4976062;28;20391;-81
2023/07/22 06:01:40;;;;;;;;;;;;;;;5.49;100.00;99559.38;4975732;28;20296;-82
2023/07/22 06:04:05;;;;;;;;;;;;;;;5.40;100.00;99565.72;4974590;28;19922;-82
2023/07/22 06:06:31;;;;;;;;;;;;;;;5.40;100.00;99563.09;4976134;28;20372;-82
2023/07/22 06:08:56;;;;;;;;;;;;;;;5.43;100.00;99564.78;4975847;28;20012;-84
2023/07/22 06:11:21;;;;;;;;;;;;;;;5.33;100.00;99563.28;4976151;28;19940;-82
2023/07/22 06:13:46;;;;;;;;;;;;;;;5.25;100.00;99569.59;4993536;28;19922;-83
2023/07/22 06:16:12;;;;;;;;;;;;;;;5.20;100.00;99574.13;4971341;28;20375;-81
2023/07/22 06:18:37;;;;;;;;;;;;;;;5.23;100.00;99567.91;4988012;28;19929;-82
2023/07/22 06:21:02;;;;;;;;;;;;;;;5.17;100.00;99579.44;4987330;28;19922;-81
2023/07/22 06:23:28;;;;;;;;;;;;;;;5.16;100.00;99580.34;4975895;28;20016;-81
2023/07/22 06:25:53;;;;;;;;;;;;;;;5.18;100.00;99572.41;4988652;28;20288;-81
2023/07/22 06:28:18;;;;;;;;;;;;;;;5.13;100.00;99575.16;4975706;28;19962;-79
2023/07/22 06:30:43;;;;;;;;;;;;;;;5.14;100.00;99578.63;4975654;28;20313;-80
2023/07/22 06:33:09;;;;;;;;;;;;;;;5.12;100.00;99585.69;4970806;28;19918;-82
2023/07/22 06:35:34;;;;;;;;;;;;;;;5.05;100.00;99580.56;4991918;28;19918;-81
2023/07/22 06:37:59;;;;;;;;;;;;;;;5.02;100.00;99591.16;4975579;28;19918;-82
2023/07/22 06:40:25;;;;;;;;;;;;;;;5.05;100.00;99585.81;4975558;28;20379;-82
2023/07/22 06:42:50;;;;;;;;;;;;;;;5.06;100.00;99587.56;4975643;28;20337;-81
2023/07/22 06:45:15;;;;;;;;;;;;;;;5.08;100.00;99583.13;4975107;28;19914;-84
2023/07/22 06:47:40;;;;;;;;;;;;;;;5.14;100.00;99584.75;4975063;28;19922;-83
2023/07/22 06:50:06;;;;;;;;;;;;;;;5.11;100.00;99595.34;4974086;28;19913;-82
2023/07/22 06:52:31;;;;;;;;;;;;;;;5.09;100.00;99591.91;4987810;28;19918;-82
2023/07/22 06:54:57;;;;;;;;;;;;;;;5.11;100.00;99589.22;4975528;28;19924;-83
2023/07/22 06:57:22;;;;;;;;;;;;;;;5.12;100.00;99589.16;4970720;28;19957;-82
2023/07/22 06:59:47;;;;;;;;;;;;;;;5.13;100.00;99574.28;4973952;28;20292;-83
2023/07/22 07:02:13;;;;;;;;;;;;;;;5.17;100.00;99583.81;4991499;28;19975;-82
2023/07/22 07:04:38;;;;;;;;;;;;;;;5.13;100.00;99577.78;4991599;28;19972;-82
2023/07/22 07:07:03;;;;;;;;;;;;;;;5.13;100.00;99583.03;4975154;28;20412;-84
2023/07/22 07:09:29;;;;;;;;;;;;;;;5.04;100.00;99588.50;4991812;28;19915;-83
2023/07/22 07:11:56;;;;;;;;;;;;;;;5.08;100.00;99584.91;4974931;28;19918;-82
2023/07/22 07:14:22;;;;;;;;;;;;;;;5.18;100.00;99585.53;4992663;28;19922;-83
2023/07/22 07:16:48;;;;;;;;;;;;;;;5.16;100.00;99577.69;4992536;28;19914;-82
2023/07/22 07:19:13;;;;;;;;;;;;;;;5.17;100.00;99578.56;4973750;28;19945;-82
2023/07/22 07:21:38;;;;;;;;;;;;;;;5.14;100.00;99584.75;4992323;28;19922;-82
2023/07/22 07:24:03;;;;;;;;;;;;;;;5.15;100.00;99577.75;4992402;28;19981;-82
2023/07/22 07:51:29;;;;;;;;;;;;;;;5.14;100.00;99592.66;4991684;28;19932;-84
2023/07/22 07:53:55;;;;;;;;;;;;;;;5.14;100.00;99590.03;4992408;28;19929;-87
2023/07/22 07:56:21;;;;;;;;;;;;;;;5.20;100.00;99592.50;4972905;28;20021;-82
2023/07/22 07:58:47;;;;;;;;;;;;;;;5.16;100.00;99588.22;4972967;28;20307;-85
2023/07/22 08:01:13;;;;;;;;;;;;;;;5.12;100.00;99594.41;4991528;28;19924;-84
2023/07/22 08:03:39;;;;;;;;;;;;;;;5.17;100.00;99599.56;4993835;28;19922;-84
2023/07/22 08:06:06;;;;;;;;;;;;;;;5.17;100.00;99589.94;4996205;28;19925;-84
2023/07/22 08:08:31;;;;;;;;;;;;;;;5.17;100.00;99589.06;4995926;28;19941;-84
2023/07/22 08:11:01;;;;;;;;;;;;;;;5.27;100.00;99593.22;4996091;28;20392;-84
2023/07/22 08:13:26;;;;;;;;;;;;;;;5.25;100.00;99589.78;4975803;28;20254;-84
2023/07/22 08:15:52;;;;;;;;;;;;;;;5.19;100.00;99593.38;4996122;28;19925;-84
2023/07/22 08:18:17;;;;;;;;;;;;;;;5.23;100.00;99588.91;4994479;28;19921;-85
2023/07/22 08:20:43;;;;;;;;;;;;;;;5.25;100.00;99592.41;4995835;28;19918;-84
2023/07/22 08:23:08;;;;;;;;;;;;;;;5.26;100.00;99587.09;4995883;28;19918;-84
2023/07/22 08:25:33;;;;;;;;;;;;;;;5.26;100.00;99584.47;4995846;28;20008;-85
2023/07/22 08:27:59;;;;;;;;;;;;;;;5.33;100.00;99585.19;4994420;28;19944;-85
2023/07/22 08:30:24;;;;;;;;;;;;;;;5.38;100.00;99583.31;4991315;28;19934;-88
2023/07/22 08:32:49;;;;;;;;;;;;;;;5.34;100.00;99586.88;4991130;28;19933;-84
2023/07/22 08:35:17;;;;;;;;;;;;;;;5.35;100.00;99590.41;4990965;28;19921;-84
2023/07/22 08:37:42;;;;;;;;;;;;;;;5.34;100.00;99588.66;4960901;28;20287;-86
2023/07/22 08:40:08;;;;;;;;;;;;;;;5.34;100.00;99581.63;4993807;28;19925;-83
2023/07/22 08:42:35;;;;;;;;;;;;;;;5.35;100.00;99582.53;4993398;28;20020;-89
2023/07/22 08:45:01;;;;;;;;;;;;;;;5.31;100.00;99581.72;4977379;28;20257;-85
2023/07/22 08:47:28;;;;;;;;;;;;;;;5.35;100.00;99585.16;4983150;28;20358;-85
2023/07/22 08:49:57;;;;;;;;;;;;;;;5.35;100.00;99583.38;4979398;28;19922;-85
2023/07/22 08:52:22;;;;;;;;;;;;;;;5.32;100.00;99574.72;4967542;28;19961;-84
2023/07/22 08:54:49;;;;;;;;;;;;;;;5.31;100.00;99571.19;4990918;28;19925;-84
2023/07/22 08:57:14;;;;;;;;;;;;;;;5.32;100.00;99577.34;4974780;28;20391;-86
2023/07/22 08:59:41;;;;;;;;;;;;;;;5.38;100.00;99583.31;4993169;28;19925;-85
2023/07/22 09:02:10;;;;;;;;;;;;;;;5.38;100.00;99578.03;4992735;28;19917;-86
2023/07/22 09:04:35;;;;;;;;;;;;;;;5.36;100.00;99576.34;4989950;28;19929;-85
2023/07/22 09:07:00;;;;;;;;;;;;;;;5.35;100.00;99577.25;4991105;28;19941;-85
2023/07/22 09:09:25;;;;;;;;;;;;;;;5.28;100.00;99572.16;4982251;28;19929;-86
2023/07/22 09:11:51;;;;;;;;;;;;;;;5.34;100.00;99571.13;4972876;28;19922;-85
2023/07/22 09:14:18;;;;;;;;;;;;;;;5.34;100.00;99573.75;4976624;28;19921;-87
2023/07/22 09:16:43;;;;;;;;;;;;;;;5.34;100.00;99573.75;4994522;28;19922;-85
2023/07/22 09:19:09;;;;;;;;;;;;;;;5.27;100.00;99575.69;4993714;28;20783;-85
2023/07/22 09:21:35;;;;;;;;;;;;;;;5.40;100.00;99570.97;4976089;28;19928;-86
2023/07/22 09:24:01;;;;;;;;;;;;;;;5.32;100.00;99572.94;4992993;28;19926;-84
2023/07/22 09:26:26;;;;;;;;;;;;;;;5.28;100.00;99572.16;4993871;28;20004;-84
2023/07/22 09:28:53;;;;;;;;;;;;;;;5.22;100.00;99577.56;4994306;28;19973;-86
2023/07/22 09:31:18;;;;;;;;;;;;;;;5.25;100.00;99560.88;4968694;28;19972;-87
2023/07/22 09:33:43;;;;;;;;;;;;;;;5.27;100.00;99566.94;4993315;28;19941;-85
2023/07/22 09:36:12;;;;;;;;;;;;;;;5.20;100.00;99574.13;4993883;28;20009;-85
2023/07/22 09:38:37;;;;;;;;;;;;;;;5.24;100.00;99567.00;4993581;28;19968;-85
2023/07/22 09:41:03;;;;;;;;;;;;;;;5.26;100.00;99568.72;4989778;28;19922;-85
2023/07/22 09:43:29;;;;;;;;;;;;;;;5.14;100.00;99565.50;4975524;28;19965;-86
2023/07/22 09:45:54;;;;;;;;;;;;;;;5.17;100.00;99558.44;4976777;28;19921;-85
2023/07/22 09:48:21;;;;;;;;;;;;;;;5.23;100.00;99573.16;4990695;28;19925;-84
2023/07/22 09:50:46;;;;;;;;;;;;;;;5.19;100.00;99566.28;4981078;28;19922;-84
2023/07/22 09:53:15;;;;;;;;;;;;;;;5.15;100.00;99560.19;4992354;28;19976;-85
2023/07/22 09:55:40;;;;;;;;;;;;;;;5.15;100.00;99557.56;5004096;28;20060;-86
2023/07/22 09:58:05;;;;;;;;;;;;;;;5.17;100.00;99563.69;5004363;28;20349;-85
2023/07/22 10:00:32;;;;;;;;;;;;;;;5.17;100.00;99557.53;5003023;28;19918;-84
2023/07/22 10:02:58;;;;;;;;;;;;;;;5.17;100.00;99558.44;4992044;28;19944;-84
2023/07/22 10:05:24;;;;;;;;;;;;;;;5.20;100.00;99560.09;4989546;28;20380;-85
2023/07/22 10:07:50;;;;;;;;;;;;;;;5.18;100.00;99570.63;5013041;28;19918;-86
2023/07/22 10:10:21;;;;;;;;;;;;;;;5.14;100.00;99568.13;4995451;28;19917;-84
2023/07/22 10:12:46;;;;;;;;;;;;;;;5.11;100.00;99566.44;4994985;28;19917;-85
2023/07/22 10:15:12;;;;;;;;;;;;;;;5.11;100.00;99566.44;4992869;28;19983;-85
2023/07/22 10:17:39;;;;;;;;;;;;;;;5.12;100.00;99564.69;4992069;28;19928;-84
2023/07/22 10:20:07;;;;;;;;;;;;;;;5.15;100.00;99561.97;4991315;28;19974;-89
2023/07/22 10:22:36;;;;;;;;;;;;;;;5.14;100.00;99561.13;4978672;28;19924;-84
2023/07/22 10:25:04;;;;;;;;;;;;;;;5.63;100.00;99565.16;4992068;28;19967;-84
2023/07/22 10:27:30;;;;;;;;;;;;;;;6.14;100.00;99574.34;5010227;28;19917;-85
2023/07/22 10:29:55;;;;;;;;;;;;;;;6.38;100.00;99568.41;4994892;28;20345;-84
2023/07/22 10:32:21;;;;;;;;;;;;;;;6.45;100.00;99567.31;5011970;28;20003;-84
2023/07/22 10:34:46;;;;;;;;;;;;;;;6.62;100.00;99569.44;5010493;28;19922;-84
2023/07/22 10:37:11;;;;;;;;;;;;;;;6.72;100.00;99566.47;5011305;28;19913;-85
2023/07/22 10:39:37;;;;;;;;;;;;;;;6.79;100.00;99558.41;5010750;28;20004;-84
2023/07/22 10:42:04;;;;;;;;;;;;;;;6.90;100.00;99569.47;5011159;28;20296;-86
2023/07/22 10:44:38;;;;;;;;;;;;;;;6.92;100.00;99565.00;5011321;28;19929;-84
2023/07/22 10:47:04;;;;;;;;;;;;;;;6.94;100.00;99559.69;5012086;28;20323;-84
2023/07/22 10:49:47;;;;;;;;;;;;;;;6.99;100.00;99568.28;5010297;28;19929;-86
2023/07/22 10:52:13;;;;;;;;;;;;;;;7.07;100.00;99553.13;5011958;28;19917;-86
2023/07/22 10:54:38;;;;;;;;;;;;;;;7.09;100.00;99560.06;5012035;28;19924;-84
2023/07/22 10:57:22;;;;;;;;;;;;;;;7.13;100.00;99563.44;4992173;28;19922;-85
2023/07/22 10:59:48;;;;;;;;;;;;;;;7.15;100.00;99547.59;5011609;28;20041;-84
2023/07/22 11:02:22;;;;;;;;;;;;;;;7.22;100.00;99549.13;5012175;28;19917;-84
2023/07/22 11:04:48;;;;;;;;;;;;;;;7.24;100.00;99552.56;5009678;28;19918;-84
2023/07/22 11:07:13;;;;;;;;;;;;;;;7.27;100.00;99547.19;5011605;28;19924;-84
2023/07/22 11:09:39;;;;;;;;;;;;;;;7.31;100.00;99564.63;4991818;28;19917;-84
2023/07/22 11:12:18;;;;;;;;;;;;;;;7.31;100.00;99548.81;5011074;28;20363;-84
2023/07/22 11:14:50;;;;;;;;;;;;;;;7.40;100.00;99543.25;5009887;28;19965;-84
2023/07/22 11:17:16;;;;;;;;;;;;;;;7.37;100.00;99538.09;5011703;28;19925;-85
2023/07/22 11:19:42;;;;;;;;;;;;;;;7.39;100.00;99538.03;5009982;28;19965;-84
2023/07/22 11:22:07;;;;;;;;;;;;;;;7.46;100.00;99548.28;5011842;28;20014;-84
2023/07/22 11:24:34;;;;;;;;;;;;;;;7.46;100.00;99545.66;5011523;28;19948;-85
2023/07/22 11:27:02;;;;;;;;;;;;;;;7.52;100.00;99543.75;4994346;28;19924;-85
2023/07/22 11:29:27;;;;;;;;;;;;;;;7.47;100.00;99543.91;5010784;28;19925;-85
2023/07/22 11:31:53;;;;;;;;;;;;;;;7.51;100.00;99528.84;5011388;28;19921;-85
2023/07/22 11:34:22;;;;;;;;;;;;;;;7.50;100.00;99519.19;5009375;28;19917;-85
2023/07/22 11:36:48;;;;;;;;;;;;;;;7.50;100.00;99529.72;5011513;28;19929;-84
2023/07/22 11:39:14;;;;;;;;;;;;;;;7.53;100.00;99516.44;5015425;28;19925;-84
2023/07/22 11:41:41;;;;;;;;;;;;;;;7.56;100.00;99516.34;5015542;28;20423;-84
2023/07/22 11:44:08;;;;;;;;;;;;;;;7.54;100.00;99516.41;5015654;28;19971;-84
2023/07/22 11:46:34;;;;;;;;;;;;;;;7.56;100.00;99519.88;5015382;28;19913;-84
2023/07/22 11:49:00;;;;;;;;;;;;;;;7.58;100.00;99522.44;5013259;28;19917;-84
2023/07/22 11:51:25;;;;;;;;;;;;;;;7.59;100.00;99511.81;5015182;28;19922;-85
2023/07/22 11:53:51;;;;;;;;;;;;;;;7.61;100.00;99515.28;4995935;28;19928;-85
2023/07/22 11:56:26;;;;;;;;;;;;;;;7.66;100.00;99517.75;5014790;28;19917;-84
2023/07/22 11:58:52;;;;;;;;;;;;;;;7.73;100.00;99519.25;5013393;28;19941;-84
2023/07/22 12:01:18;;;;;;;;;;;;;;;7.74;100.00;99513.06;5013865;28;19917;-85
2023/07/22 12:03:43;;;;;;;;;;;;;;;7.72;100.00;99512.28;5013095;28;19976;-85
2023/07/22 12:06:09;;;;;;;;;;;;;;;7.78;100.00;99511.19;5014616;28;19918;-84
2023/07/22 12:08:35;;;;;;;;;;;;;;;7.74;100.00;99515.72;5014672;28;19922;-84
2023/07/22 12:11:01;;;;;;;;;;;;;;;7.76;100.00;99508.59;5013375;28;19943;-85
2023/07/22 12:13:26;;;;;;;;;;;;;;;7.72;100.00;99507.00;5013412;28;20426;-85
2023/07/22 12:16:02;;;;;;;;;;;;;;;7.76;100.00;99503.31;4994061;28;19924;-84
2023/07/22 12:18:27;;;;;;;;;;;;;;;7.82;100.00;99496.97;4988451;28;19924;-86
2023/07/22 12:20:52;;;;;;;;;;;;;;;7.82;100.00;99487.28;5014684;28;20308;-86
2023/07/22 12:23:18;;;;;;;;;;;;;;;7.82;100.00;99497.81;5014953;28;20356;-85
2023/07/22 12:25:43;;;;;;;;;;;;;;;7.80;100.00;99501.44;5014451;28;19921;-85
2023/07/22 12:28:10;;;;;;;;;;;;;;;7.88;100.00;99495.88;5013246;28;19919;-88
2023/07/22 12:30:36;;;;;;;;;;;;;;;7.90;100.00;99494.06;4997565;28;19980;-89
2023/07/22 12:33:01;;;;;;;;;;;;;;;7.93;100.00;99491.28;5015122;28;20008;-84
2023/07/22 12:35:27;;;;;;;;;;;;;;;7.91;100.00;99490.50;4994952;28;19922;-84
2023/07/22 12:37:52;;;;;;;;;;;;;;;7.96;100.00;99488.53;4995893;28;20023;-85
2023/07/22 12:40:17;;;;;;;;;;;;;;;7.93;100.00;99491.28;5014827;28;19922;-84
2023/07/22 12:42:42;;;;;;;;;;;;;;;7.90;100.00;99486.16;5014958;28;19924;-86
2023/07/22 12:45:08;;;;;;;;;;;;;;;7.94;100.00;99482.47;4994676;28;20463;-85
2023/07/22 12:47:33;;;;;;;;;;;;;;;7.92;100.00;99486.94;4988888;28;19922;-85
2023/07/22 12:49:58;;;;;;;;;;;;;;;7.97;100.00;99495.53;5011235;28;20392;-87
2023/07/22 12:52:24;;;;;;;;;;;;;;;7.95;100.00;99482.41;5013207;28;19929;-85
2023/07/22 12:54:49;;;;;;;;;;;;;;;7.95;100.00;99485.03;5012093;28;20008;-84
2023/07/22 12:57:14;;;;;;;;;;;;;;;7.97;100.00;99477.94;5011687;28;20966;-84
2023/07/22 12:59:40;;;;;;;;;;;;;;;8.02;100.00;99474.28;5014608;28;20369;-85
2023/07/22 13:02:06;;;;;;;;;;;;;;;8.06;100.00;99476.75;5014451;28;19917;-85
2023/07/22 13:04:31;;;;;;;;;;;;;;;8.02;100.00;99476.91;5013196;28;20460;-86
2023/07/22 13:06:56;;;;;;;;;;;;;;;8.02;100.00;99471.63;5014429;28;19922;-84
2023/07/22 13:09:22;;;;;;;;;;;;;;;8.05;100.00;99466.25;5013693;28;20028;-84
2023/07/22 13:11:47;;;;;;;;;;;;;;;8.02;100.00;99467.22;5013817;28;19921;-85
2023/07/22 13:14:14;;;;;;;;;;;;;;;8.08;100.00;99466.97;5013644;28;19945;-85
2023/07/22 13:16:39;;;;;;;;;;;;;;;8.09;100.00;99473.09;4994892;28;19925;-85
2023/07/22 13:19:04;;;;;;;;;;;;;;;8.07;100.00;99473.16;5012038;28;20399;-84
2023/07/22 13:21:30;;;;;;;;;;;;;;;8.04;100.00;99465.41;5012211;28;20456;-84
2023/07/22 13:23:55;;;;;;;;;;;;;;;8.04;100.00;99465.41;5012408;28;19917;-84
2023/07/22 13:26:21;;;;;;;;;;;;;;;8.06;100.00;99466.19;5013195;28;20004;-84
2023/07/22 13:28:46;;;;;;;;;;;;;;;8.08;100.00;99471.41;5013173;28;19964;-84
2023/07/22 13:31:11;;;;;;;;;;;;;;;8.03;100.00;99454.91;5012922;28;19929;-84
2023/07/22 13:33:37;;;;;;;;;;;;;;;8.13;100.00;99459.75;5011005;28;19913;-84
2023/07/22 13:36:02;;;;;;;;;;;;;;;8.14;100.00;99466.75;5012068;28;19921;-84
2023/07/22 13:38:27;;;;;;;;;;;;;;;8.18;100.00;99460.44;5002189;28;19913;-84
2023/07/22 13:40:52;;;;;;;;;;;;;;;8.15;100.00;99455.28;5012577;28;19921;-91
2023/07/22 13:43:18;;;;;;;;;;;;;;;8.16;100.00;99449.06;4996201;28;19924;-84
2023/07/22 13:45:43;;;;;;;;;;;;;;;8.19;100.00;99456.88;5012554;28;19997;-84
2023/07/22 13:48:11;;;;;;;;;;;;;;;8.16;100.00;99457.00;5012211;28;19985;-84
2023/07/22 13:50:36;;;;;;;;;;;;;;;8.13;100.00;99451.81;5012815;28;20372;-84
2023/07/22 13:53:01;;;;;;;;;;;;;;;8.18;100.00;99452.53;5013526;28;19917;-87
2023/07/22 13:55:27;;;;;;;;;;;;;;;8.25;100.00;99457.56;5013672;28;19921;-84
2023/07/22 13:57:52;;;;;;;;;;;;;;;8.21;100.00;99453.31;5013628;28;19917;-85
2023/07/22 14:00:18;;;;;;;;;;;;;;;8.23;100.00;99443.56;4995403;28;19975;-85
2023/07/22 14:02:43;;;;;;;;;;;;;;;8.24;100.00;99434.72;5013371;28;20364;-85
2023/07/22 14:05:09;;;;;;;;;;;;;;;8.24;100.00;99440.00;5012060;28;19920;-86
2023/07/22 14:07:35;;;;;;;;;;;;;;;8.29;100.00;99443.31;5013441;28;19956;-85
2023/07/22 14:10:00;;;;;;;;;;;;;;;8.33;100.00;99439.66;5003449;28;20448;-85
2023/07/22 14:12:25;;;;;;;;;;;;;;;8.31;100.00;99426.53;5013313;28;19957;-92
2023/07/22 14:14:51;;;;;;;;;;;;;;;8.29;100.00;99432.78;5013692;28;20376;-85
2023/07/22 14:17:16;;;;;;;;;;;;;;;8.30;100.00;99429.22;5011625;28;19955;-86
2023/07/22 14:19:41;;;;;;;;;;;;;;;8.27;100.00;99430.19;5011957;28;20344;-86
2023/07/22 14:22:07;;;;;;;;;;;;;;;8.32;100.00;99419.44;5012996;28;19964;-88
2023/07/22 14:24:32;;;;;;;;;;;;;;;8.30;100.00;99418.66;4995432;28;19960;-85
2023/07/22 14:26:57;;;;;;;;;;;;;;;8.24;100.00;99409.19;5011120;28;20380;-83
2023/07/22 14:29:24;;;;;;;;;;;;;;;8.31;100.00;99420.38;5011621;28;19985;-86
2023/07/22 14:31:50;;;;;;;;;;;;;;;8.34;100.00;99425.53;5011289;28;20280;-88
2023/07/22 14:34:15;;;;;;;;;;;;;;;8.32;100.00;99409.75;5010440;28;19917;-86
2023/07/22 14:36:40;;;;;;;;;;;;;;;8.37;100.00;99401.66;5012152;28;20004;-85
2023/07/22 14:39:06;;;;;;;;;;;;;;;8.44;100.00;99413.72;5011921;28;19979;-84
2023/07/22 14:41:31;;;;;;;;;;;;;;;8.39;100.00;99404.22;5011359;28;20007;-83
2023/07/22 14:43:57;;;;;;;;;;;;;;;8.45;100.00;99396.94;5010677;28;20068;-84
2023/07/22 14:46:22;;;;;;;;;;;;;;;8.46;100.00;99403.09;4992570;28;19921;-83
2023/07/22 14:48:47;;;;;;;;;;;;;;;8.42;100.00;99407.59;5010312;28;19917;-85
2023/07/22 14:51:13;;;;;;;;;;;;;;;8.46;100.00;99392.53;4992544;28;19995;-86
2023/07/22 14:53:38;;;;;;;;;;;;;;;8.48;100.00;99391.53;4993399;28;20506;-84
2023/07/22 14:56:06;;;;;;;;;;;;;;;8.48;100.00;99396.81;5012554;28;19913;-87
2023/07/22 14:58:32;;;;;;;;;;;;;;;8.46;100.00;99393.38;4994924;28;19925;-85
2023/07/22 15:00:57;;;;;;;;;;;;;;;8.47;100.00;99395.13;5011059;28;20320;-84
2023/07/22 15:03:22;;;;;;;;;;;;;;;8.51;100.00;99396.69;5010011;28;19972;-86
2023/07/22 15:05:47;;;;;;;;;;;;;;;8.48;100.00;99386.25;5011329;28;19921;-84
2023/07/22 15:08:13;;;;;;;;;;;;;;;8.46;100.00;99382.84;5005815;28;20365;-85
2023/07/22 15:10:38;;;;;;;;;;;;;;;8.45;100.00;99381.09;5010238;28;20274;-85
2023/07/22 15:13:03;;;;;;;;;;;;;;;8.52;100.00;99381.69;5011177;28;19960;-92
2023/07/22 15:15:28;;;;;;;;;;;;;;;8.51;100.00;99385.28;4994673;28;19922;-86
2023/07/22 15:17:54;;;;;;;;;;;;;;;8.50;100.00;99387.06;4992476;28;19921;-84
2023/07/22 15:20:19;;;;;;;;;;;;;;;8.54;100.00;99386.00;5010176;28;20016;-85
2023/07/22 15:22:44;;;;;;;;;;;;;;;8.60;100.00;99384.91;5011526;28;19976;-86
2023/07/22 15:25:10;;;;;;;;;;;;;;;7.64;100.00;99383.31;5011545;28;20403;-85
2023/07/22 15:27:35;;;;;;;;;;;;;;;7.06;100.00;99375.72;5010857;28;19941;-85
2023/07/22 15:30:00;;;;;;;;;;;;;;;6.84;100.00;99383.50;5010040;28;19921;-85
2023/07/22 15:32:26;;;;;;;;;;;;;;;6.70;100.00;99384.00;4993932;28;20008;-87
2023/07/22 15:34:51;;;;;;;;;;;;;;;6.55;100.00;99389.75;4990324;28;20394;-82
2023/07/22 15:37:16;;;;;;;;;;;;;;;6.51;100.00;99388.13;5010243;28;19925;-86
2023/07/22 15:39:41;;;;;;;;;;;;;;;6.43;100.00;99383.13;5009182;28;20000;-85
2023/07/22 15:42:07;;;;;;;;;;;;;;;6.43;100.00;99375.22;5010915;28;19924;-85
2023/07/22 15:44:32;;;;;;;;;;;;;;;6.32;100.00;99372.94;5011061;28;19917;-86
2023/07/22 15:46:58;;;;;;;;;;;;;;;6.33;100.00;99379.94;5011102;28;19918;-86
2023/07/22 15:49:23;;;;;;;;;;;;;;;6.29;100.00;99372.19;5009447;28;19968;-87
2023/07/22 15:51:49;;;;;;;;;;;;;;;6.27;100.00;99380.13;5011461;28;20015;-84
2023/07/22 15:54:15;;;;;;;;;;;;;;;6.26;100.00;99372.28;5011119;28;19928;-86
2023/07/22 15:56:40;;;;;;;;;;;;;;;6.20;100.00;99368.06;5011185;28;20136;-87
2023/07/22 15:59:06;;;;;;;;;;;;;;;6.19;100.00;99371.63;5011220;28;19924;-86
2023/07/22 16:01:31;;;;;;;;;;;;;;;6.11;100.00;99376.22;5010989;28;19928;-87
2023/07/22 16:03:57;;;;;;;;;;;;;;;6.16;100.00;99371.72;5009860;28;19917;-85
2023/07/22 16:06:22;;;;;;;;;;;;;;;6.14;100.00;99355.09;5011024;28;19914;-84
2023/07/22 16:08:47;;;;;;;;;;;;;;;6.09;100.00;99359.66;5011301;28;19923;-85
2023/07/22 16:11:12;;;;;;;;;;;;;;;6.05;100.00;99351.00;5010922;28;20021;-87
2023/07/22 16:13:38;;;;;;;;;;;;;;;6.00;100.00;99359.03;5011387;28;19918;-84
2023/07/22 16:16:03;;;;;;;;;;;;;;;6.00;100.00;99359.03;5011172;28;20387;-84
2023/07/22 16:18:29;;;;;;;;;;;;;;;5.97;100.00;99353.88;5010284;28;19917;-84
2023/07/22 16:20:54;;;;;;;;;;;;;;;6.00;100.00;99348.50;5011573;28;19921;-84
2023/07/22 16:23:20;;;;;;;;;;;;;;;5.99;100.00;99354.66;5012483;28;19917;-84
2023/07/22 16:25:45;;;;;;;;;;;;;;;5.96;100.00;99346.88;5015254;28;19929;-88
2023/07/22 16:28:10;;;;;;;;;;;;;;;5.95;100.00;99354.78;5015267;28;20008;-84
2023/07/22 16:30:35;;;;;;;;;;;;;;;5.93;100.00;99352.19;5015009;28;19924;-84
2023/07/22 16:33:01;;;;;;;;;;;;;;;5.90;100.00;99357.53;5015254;28;19923;-87
2023/07/22 16:35:28;;;;;;;;;;;;;;;5.88;100.00;99351.47;5013693;28;20020;-85
2023/07/22 16:37:54;;;;;;;;;;;;;;;5.91;100.00;99356.66;5014507;28;19964;-89
2023/07/22 16:40:19;;;;;;;;;;;;;;;5.89;100.00;99357.59;5014191;28;19921;-85
2023/07/22 16:42:45;;;;;;;;;;;;;;;5.88;100.00;99351.47;5014451;28;19921;-83
2023/07/22 16:45:10;;;;;;;;;;;;;;;5.89;100.00;99357.59;5014289;28;20316;-85
2023/07/22 16:47:35;;;;;;;;;;;;;;;5.88;100.00;99346.22;5014519;28;20377;-85
2023/07/22 16:50:01;;;;;;;;;;;;;;;5.89;100.00;99342.69;5007169;28;19990;-84
2023/07/22 16:52:26;;;;;;;;;;;;;;;5.83;100.00;99343.72;5013868;28;19922;-86
2023/07/22 16:54:52;;;;;;;;;;;;;;;5.82;100.00;99343.78;5013239;28;20395;-86
2023/07/22 16:57:17;;;;;;;;;;;;;;;5.82;100.00;99341.16;5011737;28;20377;-86
2023/07/22 16:59:42;;;;;;;;;;;;;;;5.79;100.00;99341.22;5011875;28;19925;-88
2023/07/22 17:02:08;;;;;;;;;;;;;;;5.76;100.00;99349.22;5012753;28;19921;-85
2023/07/22 17:04:33;;;;;;;;;;;;;;;5.71;100.00;99348.50;5000549;28;19969;-85
2023/07/22 17:06:58;;;;;;;;;;;;;;;5.77;100.00;99343.91;4997482;28;20024;-85
2023/07/22 17:09:23;;;;;;;;;;;;;;;5.74;100.00;99344.00;4996323;28;19949;-90
2023/07/22 17:11:49;;;;;;;;;;;;;;;5.67;100.00;99342.47;4995924;28;19922;-85
2023/07/22 17:14:14;;;;;;;;;;;;;;;5.71;100.00;99333.59;5013636;28;20477;-87
2023/07/22 17:16:39;;;;;;;;;;;;;;;5.75;100.00;99334.38;4995049;28;19972;-86
2023/07/22 17:19:05;;;;;;;;;;;;;;;5.71;100.00;99330.97;5012774;28;19968;-84
2023/07/22 17:21:30;;;;;;;;;;;;;;;5.66;100.00;99330.22;5013739;28;20307;-84
2023/07/22 17:23:55;;;;;;;;;;;;;;;5.65;100.00;99336.41;5011744;28;20013;-87
2023/07/22 17:26:21;;;;;;;;;;;;;;;5.63;100.00;99330.31;5012687;28;20343;-84
2023/07/22 17:28:46;;;;;;;;;;;;;;;5.64;100.00;99332.91;5013659;28;20336;-84
2023/07/22 17:31:11;;;;;;;;;;;;;;;5.62;100.00;99326.00;5013402;28;19926;-85
2023/07/22 17:33:37;;;;;;;;;;;;;;;5.62;100.00;99334.72;5007278;28;19970;-85
2023/07/22 17:36:02;;;;;;;;;;;;;;;5.69;100.00;99332.78;5010522;28;19929;-85
2023/07/22 17:38:28;;;;;;;;;;;;;;;5.67;100.00;99320.59;4996260;28;19921;-85
2023/07/22 17:40:53;;;;;;;;;;;;;;;5.67;100.00;99313.56;5029911;23;20032;-85
2023/07/22 17:43:18;;;;;;;;;;;;;;;5.62;100.00;99313.69;5033829;28;20280;-84
2023/07/22 17:45:43;;;;;;;;;;;;;;;5.67;100.00;99310.94;5014252;28;19933;-86
2023/07/22 17:48:09;;;;;;;;;;;;;;;5.69;100.00;99306.47;5030176;28;20282;-83
2023/07/22 17:50:37;;;;;;;;;;;;;;;5.67;100.00;99307.47;5013213;28;20290;-86
2023/07/22 17:53:02;;;;;;;;;;;;;;;5.67;100.00;99310.94;5015302;28;19921;-88
2023/07/22 17:55:28;;;;;;;;;;;;;;;5.67;100.00;99297.78;5027726;28;19925;-88
2023/07/22 17:57:53;;;;;;;;;;;;;;;5.67;100.00;99299.56;5033473;28;19958;-88
2023/07/22 18:00:18;;;;;;;;;;;;;;;5.69;100.00;99300.38;5032443;28;20399;-86
2023/07/22 18:02:44;;;;;;;;;;;;;;;5.68;100.00;99296.91;5015538;28;20265;-85
2023/07/22 18:05:09;;;;;;;;;;;;;;;5.66;100.00;99301.31;5014784;28;20283;-84
2023/07/22 18:07:35;;;;;;;;;;;;;;;5.67;100.00;99299.56;5013532;28;19921;-84
2023/07/22 18:10:00;;;;;;;;;;;;;;;5.64;100.00;99292.63;5033203;28;19913;-84
2023/07/22 18:12:28;;;;;;;;;;;;;;;5.61;100.00;99300.59;5015114;28;19928;-84
2023/07/22 18:14:54;;;;;;;;;;;;;;;5.59;100.00;99295.38;5012536;28;19925;-88